Time;durP1;ratioP1;P1;durP2;ratioP2;P2;SDS_P1;SDS_P2;PMS_P1;PMS_P2;Temp;Humidity;BMP_temperature;BMP_pressure;BME280_temperature;BME280_humidity;BME280_pressure;Samples;Min_cycle;Max_cycle;Signal;HPM_P1;HPM_P2
2022/11/24 00:00:08;;;;;;;20.48;6.30;;;;;;;;;;10492134;28;20021;-52
2022/11/24 00:05:11;;;;;;;;;;;;;;;;;;10492420;28;20029;-47
2022/11/24 00:10:12;;;;;;;10.23;5.97;;;;;;;;;;10492203;28;19982;-46
2022/11/24 00:15:13;;;;;;;20.13;6.18;;;;;;;;;;10491750;28;20383;-45
2022/11/24 00:20:15;;;;;;;10.82;5.75;;;;;;;;;;10492415;28;20029;-45
2022/11/24 00:25:15;;;;;;;9.60;5.57;;;;;;;;;;10453593;28;1114045;-47
2022/11/24 00:30:16;;;;;;;14.38;5.53;;;;;;;;;;10492771;28;20036;-48
2022/11/24 00:35:17;;;;;;;16.00;5.75;;;;;;;;;;10493343;28;20035;-44
2022/11/24 00:40:17;;;;;;;9.85;4.90;;;;;;;;;;10492432;28;20024;-45
2022/11/24 00:45:18;;;;;;;9.63;5.10;;;;;;;;;;10492437;28;20101;-48
2022/11/24 00:50:20;;;;;;;9.55;5.53;;;;;;;;;;10491829;28;20149;-46
2022/11/24 00:55:20;;;;;;;8.10;5.57;;;;;;;;;;10491692;28;20445;-45
2022/11/24 01:00:21;;;;;;;10.40;5.57;;;;;;;;;;10492028;28;20035;-46
2022/11/24 01:05:21;;;;;;;8.90;5.03;;;;;;;;;;10491526;28;20020;-44
2022/11/24 01:10:22;;;;;;;8.75;5.03;;;;;;;;;;10492062;28;20035;-46
2022/11/24 01:15:22;;;;;;;7.22;5.10;;;;;;;;;;10492199;28;20050;-45
2022/11/24 01:20:23;;;;;;;11.15;5.75;;;;;;;;;;10491815;28;20035;-47
2022/11/24 01:25:24;;;;;;;14.30;5.20;;;;;;;;;;10491055;28;20053;-46
2022/11/24 01:30:24;;;;;;;8.77;5.13;;;;;;;;;;10491844;28;20082;-46
2022/11/24 01:35:25;;;;;;;7.35;5.03;;;;;;;;;;10491720;28;20028;-47
2022/11/24 01:40:25;;;;;;;9.98;5.63;;;;;;;;;;10491710;28;20560;-48
2022/11/24 01:45:39;;;;;;;6.80;4.88;;;;;;;;;;10491066;28;20421;-45
2022/11/24 01:50:41;;;;;;;6.82;4.95;;;;;;;;;;10490836;28;20175;-45
2022/11/24 01:55:42;;;;;;;11.32;4.68;;;;;;;;;;10490816;28;20028;-45
2022/11/24 02:00:44;;;;;;;17.27;4.85;;;;;;;;;;10472771;28;20024;-45
2022/11/24 02:05:56;;;;;;;7.95;5.10;;;;;;;;;;10472563;28;20582;-46
2022/11/24 02:10:57;;;;;;;6.97;4.88;;;;;;;;;;10474055;28;20104;-45
2022/11/24 02:15:57;;;;;;;7.53;4.75;;;;;;;;;;10472606;28;20035;-45
2022/11/24 02:20:59;;;;;;;6.32;4.65;;;;;;;;;;10497231;28;20033;-45
2022/11/24 02:26:46;;;;;;;8.15;4.78;;;;;;;;;;10480406;28;20507;-44
2022/11/24 02:31:53;;;;;;;5.25;4.10;;;;;;;;;;10497093;28;20036;-45
2022/11/24 02:36:54;;;;;;;7.22;4.35;;;;;;;;;;10480345;28;20032;-47
2022/11/24 02:42:07;;;;;;;6.43;4.15;;;;;;;;;;10497054;28;20024;-44
2022/11/24 02:47:11;;;;;;;7.68;4.47;;;;;;;;;;10496768;28;20486;-44
2022/11/24 02:52:13;;;;;;;6.35;4.35;;;;;;;;;;10496804;28;20224;-49
2022/11/24 02:57:14;;;;;;;5.68;4.13;;;;;;;;;;10496702;28;20029;-46
2022/11/24 03:02:14;;;;;;;6.15;4.07;;;;;;;;;;10496353;28;20392;-44
2022/11/24 03:07:15;;;;;;;7.32;4.28;;;;;;;;;;10495878;28;20024;-48
2022/11/24 03:12:16;;;;;;;5.30;4.03;;;;;;;;;;10495475;28;20020;-44
2022/11/24 03:17:16;;;;;;;6.43;4.35;;;;;;;;;;10495448;28;20028;-46
2022/11/24 03:22:17;;;;;;;6.15;4.38;;;;;;;;;;10495438;28;20110;-45
2022/11/24 03:27:18;;;;;;;7.05;3.83;;;;;;;;;;10495355;28;20032;-48
2022/11/24 03:32:18;;;;;;;8.57;4.05;;;;;;;;;;10510215;23;20059;-51
2022/11/24 03:37:19;;;;;;;7.10;4.07;;;;;;;;;;10500217;28;20028;-46
2022/11/24 03:42:20;;;;;;;4.63;3.75;;;;;;;;;;10494593;28;20459;-51
2022/11/24 03:47:21;;;;;;;4.68;3.42;;;;;;;;;;10494701;28;20048;-46
2022/11/24 03:52:21;;;;;;;6.95;4.20;;;;;;;;;;10494370;28;20419;-47
2022/11/24 03:57:22;;;;;;;5.93;3.80;;;;;;;;;;10494306;28;20090;-47
2022/11/24 04:02:22;;;;;;;5.30;3.58;;;;;;;;;;10493891;28;20025;-46
2022/11/24 04:07:23;;;;;;;4.43;3.75;;;;;;;;;;10493845;28;20383;-45
2022/11/24 04:17:44;;;;;;;4.25;3.25;;;;;;;;;;10494206;28;20036;-45
2022/11/24 04:22:44;;;;;;;5.45;3.90;;;;;;;;;;10493176;28;20179;-47
2022/11/24 04:27:51;;;;;;;4.85;3.50;;;;;;;;;;10493716;28;20581;-45
2022/11/24 04:32:52;;;;;;;5.35;3.55;;;;;;;;;;10492874;28;20064;-55
2022/11/24 04:37:53;;;;;;;4.82;3.28;;;;;;;;;;10491961;28;20116;-48
2022/11/24 04:42:55;;;;;;;4.28;3.40;;;;;;;;;;10492283;28;20029;-51
2022/11/24 04:47:55;;;;;;;3.92;3.30;;;;;;;;;;10492440;28;20027;-47
2022/11/24 04:52:56;;;;;;;5.53;3.70;;;;;;;;;;10492105;28;20387;-46
2022/11/24 04:57:56;;;;;;;4.10;2.92;;;;;;;;;;10492050;28;20545;-47
2022/11/24 05:02:57;;;;;;;5.20;3.50;;;;;;;;;;10491812;28;20388;-50
2022/11/24 05:07:59;;;;;;;4.38;3.78;;;;;;;;;;10491536;28;20024;-47
2022/11/24 05:13:00;;;;;;;4.35;3.30;;;;;;;;;;10491652;28;20035;-48
2022/11/24 05:18:06;;;;;;;4.38;3.45;;;;;;;;;;10490765;28;20435;-46
2022/11/24 05:23:07;;;;;;;4.18;3.40;;;;;;;;;;10490961;28;20113;-47
2022/11/24 05:28:11;;;;;;;3.28;2.97;;;;;;;;;;10490972;28;20121;-47
2022/11/24 05:33:17;;;;;;;3.92;3.13;;;;;;;;;;10490639;28;20079;-46
2022/11/24 05:38:18;;;;;;;7.15;3.53;;;;;;;;;;10491224;28;20107;-48
2022/11/24 05:43:18;;;;;;;4.18;3.03;;;;;;;;;;10491430;28;20078;-49
2022/11/24 05:48:19;;;;;;;6.55;3.47;;;;;;;;;;10490737;28;20050;-46
2022/11/24 05:53:20;;;;;;;3.97;3.05;;;;;;;;;;10494103;28;20388;-47
2022/11/24 05:58:20;;;;;;;3.28;2.88;;;;;;;;;;10499161;28;20365;-46
2022/11/24 06:03:21;;;;;;;8.30;3.08;;;;;;;;;;10498777;28;20024;-55
2022/11/24 06:08:21;;;;;;;3.25;2.70;;;;;;;;;;10498206;28;20086;-46
2022/11/24 06:13:22;;;;;;;3.13;2.83;;;;;;;;;;10497791;28;20020;-47
2022/11/24 06:18:23;;;;;;;3.97;2.72;;;;;;;;;;10497714;28;20033;-48
2022/11/24 06:23:23;;;;;;;3.75;2.83;;;;;;;;;;10497446;28;20028;-47
2022/11/24 06:28:25;;;;;;;9.55;3.20;;;;;;;;;;10497169;28;20073;-47
2022/11/24 06:33:25;;;;;;;9.80;3.05;;;;;;;;;;10496879;28;20097;-48
2022/11/24 06:38:26;;;;;;;7.10;3.13;;;;;;;;;;10496121;28;20182;-49
2022/11/24 06:43:28;;;;;;;3.70;2.90;;;;;;;;;;10496271;28;20025;-51
2022/11/24 06:48:30;;;;;;;5.10;3.20;;;;;;;;;;10496894;28;20032;-49
2022/11/24 06:53:36;;;;;;;5.00;3.22;;;;;;;;;;10496222;28;20021;-53
2022/11/24 06:58:46;;;;;;;9.23;3.05;;;;;;;;;;10495923;28;20480;-54
2022/11/24 07:03:48;;;;;;;4.35;3.30;;;;;;;;;;10494954;28;20032;-52
2022/11/24 07:08:49;;;;;;;4.65;2.92;;;;;;;;;;10494978;28;20106;-51
2022/11/24 07:13:50;;;;;;;7.40;4.47;;;;;;;;;;10496561;28;20017;-49
2022/11/24 07:18:52;;;;;;;9.63;3.33;;;;;;;;;;10495353;28;20040;-50
2022/11/24 07:23:55;;;;;;;14.23;3.17;;;;;;;;;;10494744;28;20089;-51
2022/11/24 07:28:56;;;;;;;11.48;3.95;;;;;;;;;;10494157;28;20045;-52
2022/11/24 07:33:57;;;;;;;6.05;3.40;;;;;;;;;;10495853;28;20024;-51
2022/11/24 07:38:57;;;;;;;17.20;3.67;;;;;;;;;;10494873;28;20468;-50
2022/11/24 07:43:58;;;;;;;7.38;3.40;;;;;;;;;;10494836;28;20028;-48
2022/11/24 07:48:58;;;;;;;4.65;3.10;;;;;;;;;;10494502;28;20029;-52
2022/11/24 07:53:59;;;;;;;9.90;3.65;;;;;;;;;;10494921;28;20033;-53
2022/11/24 07:59:00;;;;;;;8.25;3.40;;;;;;;;;;10493754;28;20028;-50
2022/11/24 08:04:01;;;;;;;8.68;3.20;;;;;;;;;;10494035;28;20112;-52
2022/11/24 08:09:01;;;;;;;4.78;3.13;;;;;;;;;;10494110;28;20032;-54
2022/11/24 08:14:02;;;;;;;9.70;3.22;;;;;;;;;;10493374;28;20353;-51
2022/11/24 08:19:03;;;;;;;9.20;2.97;;;;;;;;;;10492218;28;20037;-56
2022/11/24 08:24:04;;;;;;;9.40;3.00;;;;;;;;;;10493709;28;20032;-52
2022/11/24 08:29:04;;;;;;;7.68;2.97;;;;;;;;;;10492266;28;20032;-53
2022/11/24 08:34:05;;;;;;;8.20;3.47;;;;;;;;;;10492588;28;20082;-53
2022/11/24 08:39:06;;;;;;;6.15;3.22;;;;;;;;;;10492190;28;20534;-54
2022/11/24 08:44:09;;;;;;;7.72;3.40;;;;;;;;;;10493499;28;20070;-52
2022/11/24 08:49:10;;;;;;;9.15;3.58;;;;;;;;;;10491315;28;20039;-54
2022/11/24 08:54:14;;;;;;;12.57;3.70;;;;;;;;;;10491569;28;20060;-54
2022/11/24 08:59:14;;;;;;;10.63;3.70;;;;;;;;;;10491594;28;20040;-54
2022/11/24 09:04:15;;;;;;;7.30;3.20;;;;;;;;;;10492511;28;20035;-53
2022/11/24 09:09:16;;;;;;;3.95;3.00;;;;;;;;;;10492169;28;20541;-54
2022/11/24 09:14:17;;;;;;;9.73;3.67;;;;;;;;;;10492314;28;20020;-54
2022/11/24 09:19:17;;;;;;;8.23;3.38;;;;;;;;;;10491526;28;20024;-53
2022/11/24 09:24:18;;;;;;;6.05;3.60;;;;;;;;;;10492097;28;20029;-53
2022/11/24 09:29:18;;;;;;;4.95;3.28;;;;;;;;;;10491549;28;20443;-53
2022/11/24 09:34:19;;;;;;;4.47;2.95;;;;;;;;;;10491312;28;20025;-54
2022/11/24 09:39:20;;;;;;;6.25;3.40;;;;;;;;;;10491704;28;20028;-52
2022/11/24 09:44:26;;;;;;;7.22;3.60;;;;;;;;;;10491063;28;20036;-56
2022/11/24 09:49:49;;;;;;;5.43;3.40;;;;;;;;;;10490190;28;20376;-53
2022/11/24 09:54:59;;;;;;;5.70;2.80;;;;;;;;;;10491048;28;20070;-55
2022/11/24 10:00:09;;;;;;;5.50;3.15;;;;;;;;;;10487190;28;20020;-58
2022/11/24 10:05:11;;;;;;;4.07;3.10;;;;;;;;;;10490606;28;20033;-55
2022/11/24 10:10:21;;;;;;;6.88;3.13;;;;;;;;;;10472130;28;20284;-56
2022/11/24 10:16:06;;;;;;;5.05;3.25;;;;;;;;;;10488890;28;20127;-54
2022/11/24 10:21:32;;;;;;;4.35;2.72;;;;;;;;;;10489792;28;20107;-50
2022/11/24 10:26:36;;;;;;;3.95;2.90;;;;;;;;;;10490007;28;20029;-49
2022/11/24 10:31:41;;;;;;;3.50;2.92;;;;;;;;;;10471934;28;20063;-56
2022/11/24 10:37:18;;;;;;;4.35;2.78;;;;;;;;;;10489449;28;20425;-54
2022/11/24 10:42:30;;;;;;;4.80;3.10;;;;;;;;;;10497019;28;20025;-54
2022/11/24 10:47:30;;;;;;;6.35;2.90;;;;;;;;;;10497435;28;20044;-53
2022/11/24 10:52:39;;;;;;;6.80;2.70;;;;;;;;;;10495620;28;20024;-54
2022/11/24 10:57:40;;;;;;;6.13;3.10;;;;;;;;;;10478726;28;20511;-58
2022/11/24 11:02:41;;;;;;;4.60;2.88;;;;;;;;;;10497146;28;20028;-49
2022/11/24 11:07:41;;;;;;;5.28;2.97;;;;;;;;;;10495980;28;20025;-55
2022/11/24 11:12:42;;;;;;;7.07;3.15;;;;;;;;;;10496226;28;20252;-54
2022/11/24 11:17:43;;;;;;;4.45;3.20;;;;;;;;;;10496128;28;20029;-51
2022/11/24 11:22:46;;;;;;;4.03;2.70;;;;;;;;;;10496361;28;20020;-53
2022/11/24 11:27:47;;;;;;;4.97;3.05;;;;;;;;;;10495022;28;20028;-48
2022/11/24 11:32:59;;;;;;;5.75;2.83;;;;;;;;;;10495327;28;20057;-51
2022/11/24 11:38:05;;;;;;;3.33;2.50;;;;;;;;;;10477555;28;20037;-48
2022/11/24 11:43:30;;;;;;;3.95;2.45;;;;;;;;;;10478203;28;20075;-48
2022/11/24 11:48:33;;;;;;;4.25;2.60;;;;;;;;;;10461045;28;20064;-53
2022/11/24 11:53:59;;;;;;;5.97;2.47;;;;;;;;;;10475405;28;20074;-49
2022/11/24 11:59:46;;;;;;;6.20;2.58;;;;;;;;;;10493180;28;20036;-51
2022/11/24 12:04:54;;;;;;;4.15;2.60;;;;;;;;;;10494032;28;20086;-56
2022/11/24 12:10:27;;;;;;;2.78;2.45;;;;;;;;;;10493731;28;20372;-58
2022/11/24 12:15:40;;;;;;;3.17;2.50;;;;;;;;;;10494619;28;20032;-50
2022/11/24 12:21:11;;;;;;;4.20;3.03;;;;;;;;;;10492088;28;20352;-56
2022/11/24 12:26:46;;;;;;;3.10;2.45;;;;;;;;;;10493124;28;20024;-48
2022/11/24 12:32:17;;;;;;;4.38;2.50;;;;;;;;;;10491527;28;20040;-52
2022/11/24 12:37:23;;;;;;;4.30;2.22;;;;;;;;;;10491206;28;20119;-54
2022/11/24 12:42:53;;;;;;;3.22;2.40;;;;;;;;;;10491311;28;20036;-51
2022/11/24 12:48:08;;;;;;;3.40;2.33;;;;;;;;;;10490483;28;20024;-51
2022/11/24 12:53:27;;;;;;;2.97;2.30;;;;;;;;;;10490604;28;20029;-53
2022/11/24 12:58:44;;;;;;;;;;;;;;;;;;10489957;28;20290;-54
2022/11/24 13:04:12;;;;;;;2.70;2.38;;;;;;;;;;10473703;28;19912;-55
2022/11/24 13:09:13;;;;;;;4.40;3.10;;;;;;;;;;10472770;28;20268;-54
2022/11/24 13:14:36;;;;;;;3.10;2.28;;;;;;;;;;10489698;28;20020;-54
2022/11/24 13:19:36;;;;;;;5.88;2.72;;;;;;;;;;10472565;28;20058;-49
2022/11/24 13:24:38;;;;;;;4.95;2.63;;;;;;;;;;10489967;28;20050;-49
2022/11/24 13:29:42;;;;;;;2.90;2.50;;;;;;;;;;10489720;28;20276;-54
2022/11/24 13:34:44;;;;;;;3.30;2.72;;;;;;;;;;10490261;28;20024;-52
2022/11/24 13:40:12;;;;;;;3.58;2.40;;;;;;;;;;10488678;28;20457;-53
2022/11/24 13:45:38;;;;;;;4.45;2.35;;;;;;;;;;10489016;28;20029;-56
2022/11/24 13:50:54;;;;;;;3.90;2.85;;;;;;;;;;10489742;28;20078;-53
2022/11/24 13:56:05;;;;;;;2.92;2.15;;;;;;;;;;10488845;28;20157;-55
2022/11/24 14:01:34;;;;;;;3.13;2.72;;;;;;;;;;10488648;28;20262;-55
2022/11/24 14:06:52;;;;;;;3.50;2.78;;;;;;;;;;10486951;28;20025;-51
2022/11/24 14:12:16;;;;;;;3.08;2.30;;;;;;;;;;10487688;28;20087;-55
2022/11/24 14:17:27;;;;;;;4.40;2.60;;;;;;;;;;10496347;28;20044;-53
2022/11/24 14:22:31;;;;;;;3.65;2.88;;;;;;;;;;10497330;28;20115;-48
2022/11/24 14:27:35;;;;;;;2.90;2.40;;;;;;;;;;10495430;28;20033;-48
2022/11/24 14:32:39;;;;;;;24.13;3.25;;;;;;;;;;10496814;28;20123;-51
2022/11/24 14:37:39;;;;;;;33.08;2.70;;;;;;;;;;10495861;28;20064;-55
2022/11/24 14:42:40;;;;;;;75.03;5.57;;;;;;;;;;10496064;28;20017;-52
2022/11/24 14:47:44;;;;;;;65.05;4.47;;;;;;;;;;10495843;28;20055;-50
2022/11/24 14:52:53;;;;;;;27.13;4.50;;;;;;;;;;10495632;28;20383;-48
2022/11/24 14:57:54;;;;;;;56.22;4.20;;;;;;;;;;10494356;28;20388;-52
2022/11/24 15:03:01;;;;;;;27.20;4.57;;;;;;;;;;10495241;28;20035;-58
2022/11/24 15:08:02;;;;;;;32.25;3.90;;;;;;;;;;10492527;28;20089;-56
2022/11/24 15:13:17;;;;;;;26.92;4.18;;;;;;;;;;10467595;28;20516;-59
2022/11/24 15:18:35;;;;;;;10.68;3.53;;;;;;;;;;10493028;28;20089;-57
2022/11/24 15:23:39;;;;;;;19.48;3.33;;;;;;;;;;10494494;28;20025;-56
2022/11/24 15:28:40;;;;;;;9.43;2.60;;;;;;;;;;10476801;28;20025;-60
2022/11/24 15:33:41;;;;;;;10.73;2.47;;;;;;;;;;10470519;28;20049;-54
2022/11/24 15:38:41;;;;;;;10.13;2.72;;;;;;;;;;10493979;28;20025;-55
2022/11/24 15:43:42;;;;;;;12.45;3.13;;;;;;;;;;10493576;28;20023;-56
2022/11/24 15:48:42;;;;;;;12.88;2.45;;;;;;;;;;10493403;28;20024;-56
2022/11/24 15:53:48;;;;;;;12.38;2.75;;;;;;;;;;10493739;28;20040;-54
2022/11/24 15:58:48;;;;;;;16.88;2.40;;;;;;;;;;10476296;28;20052;-56
2022/11/24 16:03:49;;;;;;;6.80;2.42;;;;;;;;;;10493083;28;20048;-56
2022/11/24 16:08:49;;;;;;;11.45;2.65;;;;;;;;;;10492709;28;20020;-54
2022/11/24 16:13:51;;;;;;;8.45;2.80;;;;;;;;;;10492941;28;20358;-54
2022/11/24 16:18:51;;;;;;;10.13;2.42;;;;;;;;;;10492145;28;20036;-57
2022/11/24 16:23:53;;;;;;;8.75;2.88;;;;;;;;;;10492573;28;20077;-56
2022/11/24 16:28:53;;;;;;;11.20;2.70;;;;;;;;;;10492487;28;20020;-56
2022/11/24 16:33:54;;;;;;;4.97;2.28;;;;;;;;;;10491670;28;20036;-56
2022/11/24 16:38:54;;;;;;;8.23;2.63;;;;;;;;;;10490821;28;20031;-56
2022/11/24 16:43:55;;;;;;;9.60;2.60;;;;;;;;;;10491853;28;20029;-56
2022/11/24 16:49:02;;;;;;;6.68;2.85;;;;;;;;;;10492147;28;20495;-55
2022/11/24 16:54:02;;;;;;;3.50;2.17;;;;;;;;;;10491095;28;20384;-56
2022/11/24 16:59:04;;;;;;;6.80;2.50;;;;;;;;;;10491756;28;20037;-58
2022/11/24 17:04:05;;;;;;;11.40;2.72;;;;;;;;;;10489565;28;20033;-56
2022/11/24 17:09:06;;;;;;;8.57;2.53;;;;;;;;;;10489758;28;20427;-56
2022/11/24 17:14:09;;;;;;;6.47;2.58;;;;;;;;;;10490146;28;20032;-56
2022/11/24 17:19:10;;;;;;;4.10;2.70;;;;;;;;;;10490502;28;20067;-57
2022/11/24 17:24:16;;;;;;;5.68;2.30;;;;;;;;;;10489564;28;20024;-56
2022/11/24 17:29:17;;;;;;;5.82;2.67;;;;;;;;;;10489289;28;20036;-55
2022/11/24 17:34:18;;;;;;;7.30;2.75;;;;;;;;;;10490130;28;20049;-59
2022/11/24 17:39:19;;;;;;;5.03;3.00;;;;;;;;;;10488162;28;20112;-56
2022/11/24 17:44:20;;;;;;;8.38;2.22;;;;;;;;;;10489202;28;20275;-59
2022/11/24 17:49:22;;;;;;;4.57;3.30;;;;;;;;;;10494653;28;20279;-58
2022/11/24 17:54:31;;;;;;;10.40;3.35;;;;;;;;;;10498128;28;20487;-59
2022/11/24 17:59:32;;;;;;;6.25;3.08;;;;;;;;;;10497089;28;20047;-58
2022/11/24 18:04:33;;;;;;;25.38;4.20;;;;;;;;;;10497478;28;20388;-59
2022/11/24 18:09:33;;;;;;;19.40;4.47;;;;;;;;;;10496332;28;20029;-59
2022/11/24 18:14:34;;;;;;;8.07;4.10;;;;;;;;;;10496099;28;20028;-59
2022/11/24 18:19:34;;;;;;;9.45;3.92;;;;;;;;;;10478639;28;20033;-59
2022/11/24 18:24:35;;;;;;;14.93;4.50;;;;;;;;;;10478596;28;20036;-59
2022/11/24 18:29:36;;;;;;;12.35;4.32;;;;;;;;;;10478343;28;20048;-59
2022/11/24 18:34:37;;;;;;;6.57;4.22;;;;;;;;;;10493895;28;20418;-60
2022/11/24 18:39:40;;;;;;;11.45;4.75;;;;;;;;;;10495196;28;20522;-59
2022/11/24 18:44:41;;;;;;;19.02;5.00;;;;;;;;;;10495197;28;20318;-59
2022/11/24 18:49:42;;;;;;;11.35;4.97;;;;;;;;;;10494269;28;20298;-60
2022/11/24 18:54:42;;;;;;;9.70;4.60;;;;;;;;;;10495871;28;20028;-60
2022/11/24 18:59:43;;;;;;;13.27;5.80;;;;;;;;;;10494961;28;20043;-59
2022/11/24 19:04:43;;;;;;;15.98;5.70;;;;;;;;;;10495322;28;20074;-60
2022/11/24 19:09:45;;;;;;;12.48;5.40;;;;;;;;;;10495011;28;20032;-60
2022/11/24 19:14:45;;;;;;;13.50;5.80;;;;;;;;;;10493784;28;20025;-60
2022/11/24 19:19:46;;;;;;;8.68;5.63;;;;;;;;;;10492792;28;20475;-59
2022/11/24 19:24:48;;;;;;;11.57;5.22;;;;;;;;;;10492057;28;20032;-59
2022/11/24 19:29:49;;;;;;;11.20;5.40;;;;;;;;;;10493531;28;20049;-59
2022/11/24 19:34:49;;;;;;;15.52;5.88;;;;;;;;;;10493583;28;20028;-60
2022/11/24 19:39:50;;;;;;;13.55;5.72;;;;;;;;;;10494420;28;20044;-60
2022/11/24 19:44:51;;;;;;;11.20;5.88;;;;;;;;;;10494039;28;20028;-59
2022/11/24 19:49:51;;;;;;;10.98;5.93;;;;;;;;;;10494288;28;20040;-59
2022/11/24 19:54:52;;;;;;;11.02;5.97;;;;;;;;;;10493956;28;20074;-59
2022/11/24 19:59:52;;;;;;;16.88;6.85;;;;;;;;;;10493599;28;20502;-60
2022/11/24 20:04:53;;;;;;;14.27;6.40;;;;;;;;;;10493972;28;20021;-60
2022/11/24 20:09:53;;;;;;;14.18;6.57;;;;;;;;;;10492551;28;20029;-59
2022/11/24 20:14:54;;;;;;;11.65;6.65;;;;;;;;;;10493134;28;20047;-59
2022/11/24 20:19:55;;;;;;;17.63;7.18;;;;;;;;;;10492497;28;20272;-59
2022/11/24 20:24:55;;;;;;;15.43;7.32;;;;;;;;;;10492451;28;20036;-59
2022/11/24 20:29:56;;;;;;;14.38;6.88;;;;;;;;;;10492151;28;20044;-59
2022/11/24 20:34:57;;;;;;;13.85;7.25;;;;;;;;;;10491161;28;20028;-59
2022/11/24 20:40:01;;;;;;;17.95;8.18;;;;;;;;;;10491360;28;20494;-55
2022/11/24 20:45:02;;;;;;;16.17;7.80;;;;;;;;;;10488898;28;20241;-59
2022/11/24 20:50:03;;;;;;;15.50;7.05;;;;;;;;;;10490199;28;20476;-62
2022/11/24 20:55:05;;;;;;;16.63;8.27;;;;;;;;;;10490481;28;20028;-67
2022/11/24 21:00:09;;;;;;;20.77;7.60;;;;;;;;;;10487846;28;20029;-64
2022/11/24 21:05:10;;;;;;;17.85;7.10;;;;;;;;;;10488350;28;20467;-64
2022/11/24 21:10:10;;;;;;;17.83;7.10;;;;;;;;;;10487908;28;20040;-67
2022/11/24 21:15:11;;;;;;;17.02;7.50;;;;;;;;;;10489207;28;20029;-66
2022/11/24 21:20:12;;;;;;;15.18;6.85;;;;;;;;;;10487187;28;20028;-65
2022/11/24 21:25:12;;;;;;;18.90;6.30;;;;;;;;;;10487227;28;20086;-64
2022/11/24 21:30:13;;;;;;;23.00;7.30;;;;;;;;;;10489241;28;20257;-64
2022/11/24 21:35:14;;;;;;;24.88;7.28;;;;;;;;;;10488944;28;20373;-65
2022/11/24 21:40:14;;;;;;;19.77;6.88;;;;;;;;;;10488920;28;20028;-65
2022/11/24 21:45:15;;;;;;;25.20;7.25;;;;;;;;;;10487652;28;20038;-65
2022/11/24 21:50:16;;;;;;;27.52;7.60;;;;;;;;;;10488448;28;20056;-63
2022/11/24 21:55:17;;;;;;;24.58;7.38;;;;;;;;;;10487868;28;20033;-66
2022/11/24 22:00:18;;;;;;;22.17;6.68;;;;;;;;;;10488047;28;20048;-65
2022/11/24 22:05:19;;;;;;;21.55;7.03;;;;;;;;;;10486262;28;20124;-66
2022/11/24 22:10:19;;;;;;;13.13;6.20;;;;;;;;;;10486904;28;20082;-66
2022/11/24 22:15:20;;;;;;;17.85;7.03;;;;;;;;;;10486040;28;20023;-66
2022/11/24 22:20:20;;;;;;;18.63;6.55;;;;;;;;;;10486775;28;20602;-66
2022/11/24 22:25:21;;;;;;;17.00;6.43;;;;;;;;;;10486878;28;20623;-66
2022/11/24 22:30:22;;;;;;;15.77;6.20;;;;;;;;;;10485413;28;20140;-66
2022/11/24 22:35:22;;;;;;;13.45;6.65;;;;;;;;;;10487032;28;20029;-66
2022/11/24 22:40:23;;;;;;;17.40;6.20;;;;;;;;;;10494471;28;20062;-66
2022/11/24 22:45:24;;;;;;;13.55;6.50;;;;;;;;;;10494563;28;20495;-66
2022/11/24 22:50:24;;;;;;;18.95;6.32;;;;;;;;;;10493209;28;20507;-65
2022/11/24 22:55:26;;;;;;;19.35;6.97;;;;;;;;;;10494186;28;20031;-65
2022/11/24 23:00:26;;;;;;;10.20;5.93;;;;;;;;;;10494065;28;20025;-65
2022/11/24 23:05:28;;;;;;;16.70;5.97;;;;;;;;;;10493657;28;20480;-65
2022/11/24 23:10:28;;;;;;;14.65;6.53;;;;;;;;;;10494021;28;20024;-65
2022/11/24 23:15:29;;;;;;;10.48;6.05;;;;;;;;;;10492015;28;20063;-65
2022/11/24 23:20:29;;;;;;;14.25;5.95;;;;;;;;;;10491042;28;20063;-65
2022/11/24 23:25:33;;;;;;;12.82;5.53;;;;;;;;;;10492484;28;20089;-65
2022/11/24 23:30:33;;;;;;;12.45;5.82;;;;;;;;;;10490241;28;20388;-65
2022/11/24 23:35:35;;;;;;;12.38;5.30;;;;;;;;;;10490657;28;20025;-65
2022/11/24 23:40:35;;;;;;;9.82;5.57;;;;;;;;;;10491697;28;20081;-65
2022/11/24 23:45:36;;;;;;;10.48;5.63;;;;;;;;;;10491059;28;20028;-65
2022/11/24 23:50:36;;;;;;;13.57;5.60;;;;;;;;;;10492151;28;20024;-66
2022/11/24 23:55:37;;;;;;;13.27;5.75;;;;;;;;;;10490123;28;20141;-65
